createdAt,value
2023-03-17T00:01:05.632Z,100581.72
2023-03-17T00:03:41.824Z,100581.56
2023-03-17T00:06:25.349Z,100602.66
2023-03-17T00:08:58.263Z,100607.06
2023-03-17T00:11:30.236Z,100574.06
2023-03-17T00:14:03.288Z,100604.56
2023-03-17T00:16:42.950Z,100607.25
2023-03-17T00:19:42.592Z,100602.75
2023-03-17T00:22:18.922Z,100590.50
2023-03-17T00:24:51.383Z,100579.00
2023-03-17T00:27:24.558Z,100561.28
2023-03-17T00:29:56.712Z,100555.13
2023-03-17T00:32:28.698Z,100551.75
2023-03-17T00:35:00.682Z,100558.66
2023-03-17T00:37:33.216Z,100557.78
2023-03-17T00:40:19.028Z,100565.56
2023-03-17T00:42:54.513Z,100567.38
2023-03-17T00:45:29.867Z,100563.91
2023-03-17T00:48:03.313Z,100536.25
2023-03-17T00:50:35.249Z,100564.66
2023-03-17T00:53:18.595Z,100554.91
2023-03-17T00:55:50.667Z,100547.78
2023-03-17T00:58:33.840Z,100540.56
2023-03-17T01:01:05.897Z,100554.81
2023-03-17T01:03:38.875Z,100550.38
2023-03-17T01:06:14.755Z,100534.22
2023-03-17T01:08:47.515Z,100549.31
2023-03-17T01:11:21.600Z,100549.31
2023-03-17T01:13:53.873Z,100547.44
2023-03-17T01:16:26.933Z,100537.59
2023-03-17T01:18:59.464Z,100545.56
2023-03-17T01:21:31.963Z,100542.88
2023-03-17T01:24:04.675Z,100521.47
2023-03-17T01:26:36.845Z,100539.16
2023-03-17T01:29:09.343Z,100536.41
2023-03-17T01:31:41.360Z,100531.06
2023-03-17T01:34:13.357Z,100537.28
2023-03-17T01:36:45.540Z,100531.06
2023-03-17T01:39:17.941Z,100531.19
2023-03-17T01:41:50.027Z,100522.41
2023-03-17T01:44:22.500Z,100518.69
2023-03-17T01:46:54.679Z,100527.63
2023-03-17T01:49:37.564Z,100527.50
2023-03-17T01:52:17.374Z,100521.28
2023-03-17T01:55:08.186Z,100527.28
2023-03-17T01:57:53.508Z,100515.81
2023-03-17T02:00:26.624Z,100509.59
2023-03-17T02:02:59.081Z,100504.34
2023-03-17T02:05:32.731Z,100504.34
2023-03-17T02:08:12.720Z,100501.69
2023-03-17T02:10:49.540Z,100482.19
2023-03-17T02:13:21.999Z,100500.88
2023-03-17T02:15:54.525Z,100457.22
2023-03-17T02:18:26.488Z,100494.69
2023-03-17T02:21:31.561Z,100492.75
2023-03-17T02:24:12.257Z,100495.38
2023-03-17T02:26:47.150Z,100500.63
2023-03-17T02:29:22.825Z,100488.25
2023-03-17T02:31:55.185Z,100490.94
2023-03-17T02:34:27.409Z,100478.72
2023-03-17T02:36:59.570Z,100481.28
2023-03-17T02:39:32.303Z,100483.91
2023-03-17T02:42:06.372Z,100473.38
2023-03-17T02:44:38.919Z,100468.94
2023-03-17T02:47:11.791Z,100472.41
2023-03-17T02:49:44.751Z,100475.03
2023-03-17T02:52:16.990Z,100456.63
2023-03-17T02:54:49.260Z,100427.97
2023-03-17T02:57:21.515Z,100448.31
2023-03-17T02:59:53.574Z,100467.84
2023-03-17T03:02:25.654Z,100467.88
2023-03-17T03:04:57.665Z,100471.44
2023-03-17T03:07:30.952Z,100470.53
2023-03-17T03:10:04.236Z,100463.31
2023-03-17T03:12:37.155Z,100454.41
2023-03-17T03:15:09.827Z,100473.88
2023-03-17T03:17:42.145Z,100463.06
2023-03-17T03:20:14.559Z,100473.66
2023-03-17T03:22:46.831Z,100474.47
2023-03-17T03:25:19.177Z,100480.69
2023-03-17T03:27:51.681Z,100451.28
2023-03-17T03:30:23.735Z,100485.81
2023-03-17T03:32:56.258Z,100471.75
2023-03-17T03:35:29.733Z,100450.59
2023-03-17T03:38:02.163Z,100469.22
2023-03-17T03:40:37.103Z,100496.53
2023-03-17T03:43:21.894Z,100479.78
2023-03-17T03:45:54.919Z,100472.50
2023-03-17T03:48:27.151Z,100495.53
2023-03-17T03:51:01.542Z,100499.00
2023-03-17T03:53:33.538Z,100483.25
2023-03-17T03:56:06.428Z,100490.28
2023-03-17T03:58:39.205Z,100492.84
2023-03-17T04:01:11.239Z,100492.75
2023-03-17T04:03:43.317Z,100483.63
2023-03-17T04:06:16.269Z,100505.81
2023-03-17T04:08:48.401Z,100501.47
2023-03-17T04:11:20.559Z,100461.31
2023-03-17T04:13:52.668Z,100499.66
2023-03-17T04:16:24.883Z,100505.72
2023-03-17T04:18:57.508Z,100487.13
2023-03-17T04:21:29.483Z,100491.56
2023-03-17T04:24:01.613Z,100488.88
2023-03-17T04:26:33.682Z,100498.66
2023-03-17T04:29:08.083Z,100513.59
2023-03-17T04:31:40.811Z,100461.16
2023-03-17T04:34:17.834Z,100476.41
2023-03-17T04:36:49.943Z,100501.34
2023-03-17T04:39:22.099Z,100483.53
2023-03-17T04:41:54.093Z,100498.47
2023-03-17T04:44:26.238Z,100505.72
2023-03-17T04:46:58.509Z,100513.59
2023-03-17T04:49:31.359Z,100503.91
2023-03-17T04:52:03.831Z,100495.16
2023-03-17T04:54:36.455Z,100486.25
2023-03-17T04:57:10.040Z,100494.25
2023-03-17T04:59:41.999Z,100491.69
2023-03-17T05:02:14.061Z,100494.25
2023-03-17T05:04:46.650Z,100496.81
2023-03-17T05:07:18.908Z,100492.50
2023-03-17T05:09:51.825Z,100489.88
2023-03-17T05:12:23.984Z,100491.56
2023-03-17T05:14:56.026Z,100473.13
2023-03-17T05:17:28.025Z,100484.53
2023-03-17T05:19:59.972Z,100474.84
2023-03-17T05:22:32.250Z,100472.06
2023-03-17T05:25:04.942Z,100445.47
2023-03-17T05:27:37.716Z,100472.06
2023-03-17T05:30:10.954Z,100494.03
2023-03-17T05:32:43.062Z,100502.88
2023-03-17T05:35:15.239Z,100498.63
2023-03-17T05:37:47.282Z,100490.59
2023-03-17T05:40:20.447Z,100491.47
2023-03-17T05:42:53.418Z,100493.94
2023-03-17T05:45:25.407Z,100495.63
2023-03-17T05:47:57.958Z,100494.25
2023-03-17T05:50:30.208Z,100483.59
2023-03-17T05:53:03.254Z,100483.75
2023-03-17T05:55:35.321Z,100491.75
2023-03-17T05:58:07.896Z,100495.31
2023-03-17T06:00:40.771Z,100497.13
2023-03-17T06:03:12.920Z,100490.06
2023-03-17T06:05:46.245Z,100484.06
2023-03-17T06:08:18.411Z,100473.25
2023-03-17T06:10:50.375Z,100483.97
2023-03-17T06:13:23.119Z,100490.00
2023-03-17T06:15:55.202Z,100491.63
2023-03-17T06:18:27.222Z,100496.03
2023-03-17T06:20:59.220Z,100489.13
2023-03-17T06:23:31.308Z,100496.03
2023-03-17T06:26:03.383Z,100499.50
2023-03-17T06:28:35.764Z,100497.84
2023-03-17T06:31:08.994Z,100493.28
2023-03-17T06:33:41.592Z,100501.38
2023-03-17T06:36:13.912Z,100503.97
2023-03-17T06:38:46.319Z,100504.88
2023-03-17T06:41:19.098Z,100502.19
2023-03-17T06:43:52.447Z,100493.47
2023-03-17T06:46:24.457Z,100484.75
2023-03-17T06:48:56.450Z,100491.78
2023-03-17T06:51:28.451Z,100489.22
2023-03-17T06:54:00.866Z,100493.69
2023-03-17T06:56:33.226Z,100493.81
2023-03-17T06:59:05.637Z,100492.94
2023-03-17T07:01:39.415Z,100491.34
2023-03-17T07:04:11.441Z,100497.50
2023-03-17T07:06:43.437Z,100501.88
2023-03-17T07:09:15.693Z,100509.06
2023-03-17T07:11:47.788Z,100501.31
2023-03-17T07:14:20.322Z,100504.00
2023-03-17T07:16:52.379Z,100494.41
2023-03-17T07:19:24.422Z,100493.56
2023-03-17T07:21:56.506Z,100491.00
2023-03-17T07:24:28.529Z,100502.75
2023-03-17T07:27:00.579Z,100497.63
2023-03-17T07:29:34.058Z,100496.97
2023-03-17T07:32:08.225Z,100494.44
2023-03-17T07:34:40.802Z,100491.06
2023-03-17T07:37:12.750Z,100490.31
2023-03-17T07:39:47.235Z,100478.16
2023-03-17T07:42:19.855Z,100483.53
2023-03-17T07:44:51.884Z,100496.81
2023-03-17T07:47:23.956Z,100495.03
2023-03-17T07:49:55.913Z,100489.94
2023-03-17T07:52:27.947Z,100490.06
2023-03-17T07:54:59.932Z,100477.88
2023-03-17T07:57:32.020Z,100465.44
2023-03-17T08:00:09.651Z,100450.22
2023-03-17T08:02:41.687Z,100493.94
2023-03-17T08:05:14.326Z,100500.03
2023-03-17T08:07:46.572Z,100495.69
2023-03-17T08:10:18.648Z,100501.94
2023-03-17T08:12:53.395Z,100486.41
2023-03-17T08:15:25.452Z,100482.81
2023-03-17T08:17:57.444Z,100485.88
2023-03-17T08:20:30.080Z,100482.56
2023-03-17T08:23:03.617Z,100494.31
2023-03-17T08:25:35.703Z,100499.75
2023-03-17T08:28:08.055Z,100497.28
2023-03-17T08:30:40.657Z,100490.34
2023-03-17T08:33:13.077Z,100487.00
2023-03-17T08:35:45.188Z,100494.09
2023-03-17T08:38:17.421Z,100486.34
2023-03-17T08:40:51.042Z,100481.16
2023-03-17T08:43:23.998Z,100471.69
2023-03-17T08:46:12.884Z,100463.00
2023-03-17T08:48:48.196Z,100462.34
2023-03-17T08:51:25.288Z,100461.50
2023-03-17T08:53:57.544Z,100456.97
2023-03-17T08:56:29.608Z,100425.03
2023-03-17T08:59:02.043Z,100477.66
2023-03-17T09:01:34.896Z,100486.59
2023-03-17T09:04:07.047Z,100477.94
2023-03-17T09:06:44.067Z,100472.66
2023-03-17T09:09:20.942Z,100486.91
2023-03-17T09:11:52.917Z,100482.66
2023-03-17T09:14:45.240Z,100473.91
2023-03-17T09:17:18.071Z,100484.59
2023-03-17T09:19:50.152Z,100478.50
2023-03-17T09:22:22.105Z,100478.72
2023-03-17T09:24:54.129Z,100486.03
2023-03-17T09:27:26.156Z,100469.25
2023-03-17T09:29:58.103Z,100486.19
2023-03-17T09:32:30.393Z,100474.56
2023-03-17T09:35:03.906Z,100482.59
2023-03-17T09:37:35.953Z,100463.13
2023-03-17T09:40:13.880Z,100470.25
2023-03-17T09:43:31.875Z,100471.09
2023-03-17T09:46:56.128Z,100470.28
2023-03-17T09:49:52.421Z,100467.75
2023-03-17T09:52:34.427Z,100462.66
2023-03-17T09:55:17.193Z,100468.19
2023-03-17T09:57:55.892Z,100457.97
2023-03-17T10:00:29.871Z,100460.78
2023-03-17T10:03:01.963Z,100469.59
2023-03-17T10:05:36.996Z,100440.31
2023-03-17T10:08:32.231Z,100459.84
2023-03-17T10:11:28.032Z,100452.00
2023-03-17T10:14:33.928Z,100465.22
2023-03-17T10:17:16.520Z,100476.84
2023-03-17T10:20:27.177Z,100485.81
2023-03-17T10:23:06.939Z,100476.41
2023-03-17T10:25:39.466Z,100463.44
2023-03-17T10:28:35.926Z,100484.75
2023-03-17T10:31:17.541Z,100486.59
2023-03-17T10:33:54.853Z,100488.44
2023-03-17T10:36:38.646Z,100482.28
2023-03-17T10:39:18.716Z,100482.41
2023-03-17T10:42:07.857Z,100492.22
2023-03-17T10:44:52.780Z,100487.13
2023-03-17T10:47:40.844Z,100478.47
2023-03-17T10:50:22.110Z,100480.47
2023-03-17T10:53:09.300Z,100477.09
2023-03-17T10:55:49.832Z,100472.00
2023-03-17T10:58:45.849Z,100475.69
2023-03-17T11:01:34.093Z,100466.94
2023-03-17T11:04:40.038Z,100458.13
2023-03-17T11:07:27.715Z,100459.03
2023-03-17T11:10:03.380Z,100441.31
2023-03-17T11:12:40.918Z,100447.56
2023-03-17T11:15:20.146Z,100407.72
2023-03-17T11:17:59.165Z,100445.78
2023-03-17T11:20:43.420Z,100455.53
2023-03-17T11:23:43.232Z,100445.88
2023-03-17T11:26:30.411Z,100432.59
2023-03-17T11:29:33.051Z,100429.09
2023-03-17T11:32:11.042Z,100433.50
2023-03-17T11:35:12.532Z,100437.06
2023-03-17T11:38:24.466Z,100447.69
2023-03-17T11:41:25.492Z,100443.22
2023-03-17T11:44:26.117Z,100446.72
2023-03-17T11:47:06.876Z,100435.19
2023-03-17T11:49:41.089Z,100418.31
2023-03-17T11:52:26.986Z,100423.63
2023-03-17T11:55:53.029Z,100415.63
2023-03-17T11:58:44.357Z,100415.63
2023-03-17T12:01:27.276Z,100411.16
2023-03-17T12:04:18.959Z,100417.31
2023-03-17T12:07:01.342Z,100365.91
2023-03-17T12:09:51.827Z,100411.06
2023-03-17T12:12:56.666Z,100409.31
2023-03-17T12:15:47.309Z,100401.38
2023-03-17T12:18:37.397Z,100408.47
2023-03-17T12:21:34.053Z,100408.47
2023-03-17T12:24:43.894Z,100406.75
2023-03-17T12:27:51.031Z,100418.31
2023-03-17T12:30:52.839Z,100422.78
2023-03-17T12:33:48.823Z,100426.34
2023-03-17T12:36:21.964Z,100418.34
2023-03-17T12:39:05.607Z,100413.03
2023-03-17T12:42:13.823Z,100413.94
2023-03-17T12:45:19.258Z,100408.63
2023-03-17T12:48:02.928Z,100401.53
2023-03-17T12:51:06.348Z,100366.97
2023-03-17T12:53:42.671Z,100384.50
2023-03-17T12:56:34.557Z,100381.81
2023-03-17T12:59:14.806Z,100374.53
2023-03-17T13:02:27.794Z,100377.25
2023-03-17T13:05:05.567Z,100380.81
2023-03-17T13:07:53.941Z,100374.69
2023-03-17T13:10:48.610Z,100369.28
2023-03-17T13:13:45.448Z,100371.00
2023-03-17T13:16:28.334Z,100367.34
2023-03-17T13:19:20.250Z,100368.19
2023-03-17T13:21:57.828Z,100377.88
2023-03-17T13:24:48.023Z,100378.75
2023-03-17T13:27:31.996Z,100376.94
2023-03-17T13:30:26.983Z,100376.06
2023-03-17T13:33:11.471Z,100367.31
2023-03-17T13:35:46.332Z,100372.66
2023-03-17T13:38:33.067Z,100360.22
2023-03-17T13:41:50.364Z,100361.97
2023-03-17T13:44:45.947Z,100363.69
2023-03-17T13:47:24.379Z,100353.97
2023-03-17T13:50:12.604Z,100353.00
2023-03-17T13:52:57.585Z,100349.31
2023-03-17T13:55:40.985Z,100348.25
2023-03-17T13:58:13.021Z,100349.91
2023-03-17T14:00:55.269Z,100348.19
2023-03-17T14:03:43.906Z,100329.66
2023-03-17T14:06:19.515Z,100332.38
2023-03-17T14:09:16.655Z,100343.94
2023-03-17T14:11:50.968Z,100333.31
2023-03-17T14:14:53.220Z,100333.41
2023-03-17T14:17:44.661Z,100331.66
2023-03-17T14:20:16.914Z,100328.19
2023-03-17T14:23:01.977Z,100330.03
2023-03-17T14:25:36.207Z,100330.03
2023-03-17T14:28:16.503Z,100329.16
2023-03-17T14:30:58.812Z,100331.84
2023-03-17T14:33:40.005Z,100330.06
2023-03-17T14:36:14.604Z,100326.47
2023-03-17T14:38:54.069Z,100316.75
2023-03-17T14:41:28.537Z,100315.03
2023-03-17T14:44:02.184Z,100303.47
2023-03-17T14:46:38.884Z,100315.91
2023-03-17T14:49:20.956Z,100308.81
2023-03-17T14:51:53.605Z,100301.72
2023-03-17T14:54:34.319Z,100301.69
2023-03-17T14:57:15.725Z,100278.75
2023-03-17T15:00:29.685Z,100310.59
2023-03-17T15:03:15.662Z,100287.63
2023-03-17T15:05:48.871Z,100304.47
2023-03-17T15:08:43.410Z,100305.41
2023-03-17T15:11:22.253Z,100302.72
2023-03-17T15:14:30.018Z,100296.53
2023-03-17T15:17:06.510Z,100293.88
2023-03-17T15:19:45.391Z,100293.00
2023-03-17T15:22:42.177Z,100291.22
2023-03-17T15:25:29.118Z,100295.66
2023-03-17T15:28:01.484Z,100295.66
2023-03-17T15:30:46.310Z,100300.00
2023-03-17T15:33:23.115Z,100290.28
2023-03-17T15:36:00.402Z,100284.06
2023-03-17T15:38:33.703Z,100284.91
2023-03-17T15:41:05.938Z,100285.78
2023-03-17T15:43:37.984Z,100288.41
2023-03-17T15:46:23.465Z,100283.13
2023-03-17T15:48:55.685Z,100284.91
2023-03-17T15:51:28.012Z,100286.66
2023-03-17T15:53:59.942Z,100277.78
2023-03-17T15:56:31.900Z,100279.59
2023-03-17T15:59:04.740Z,100283.16
2023-03-17T16:01:38.815Z,100266.38
2023-03-17T16:04:10.988Z,100289.41
2023-03-17T16:06:43.158Z,100282.34
2023-03-17T16:09:17.577Z,100281.47
2023-03-17T16:11:52.195Z,100291.25
2023-03-17T16:14:25.125Z,100277.97
2023-03-17T16:16:57.273Z,100275.38
2023-03-17T16:19:29.485Z,100288.66
2023-03-17T16:22:01.693Z,100301.13
2023-03-17T16:24:34.739Z,100303.84
2023-03-17T16:27:15.288Z,100307.41
2023-03-17T16:29:47.295Z,100311.88
2023-03-17T16:32:19.473Z,100307.47
2023-03-17T16:34:51.629Z,100310.13
2023-03-17T16:37:23.619Z,100305.72
2023-03-17T16:39:55.761Z,100300.41
2023-03-17T16:42:28.347Z,100307.53
2023-03-17T16:45:00.417Z,100315.53
2023-03-17T16:47:32.362Z,100314.66
2023-03-17T16:50:22.063Z,100320.00
2023-03-17T16:52:54.736Z,100318.25
2023-03-17T16:55:29.147Z,100323.56
2023-03-17T16:58:14.730Z,100315.66
2023-03-17T17:00:48.916Z,100336.00
2023-03-17T17:03:21.109Z,100334.25
2023-03-17T17:05:53.164Z,100347.53
2023-03-17T17:08:25.386Z,100336.03
2023-03-17T17:10:57.506Z,100308.59
2023-03-17T17:13:29.439Z,100349.31
2023-03-17T17:16:01.907Z,100355.56
2023-03-17T17:18:36.476Z,100355.56
2023-03-17T17:21:09.680Z,100351.13
2023-03-17T17:23:41.777Z,100362.66
2023-03-17T17:26:13.840Z,100360.91
2023-03-17T17:28:45.888Z,100364.44
2023-03-17T17:31:18.039Z,100359.13
2023-03-17T17:33:50.126Z,100362.66
2023-03-17T17:36:22.780Z,100363.53
2023-03-17T17:38:54.990Z,100370.66
2023-03-17T17:41:27.166Z,100375.06
2023-03-17T17:43:59.126Z,100382.16
2023-03-17T17:46:31.626Z,100386.59
2023-03-17T17:49:03.968Z,100382.13
2023-03-17T17:51:35.969Z,100389.22
2023-03-17T17:54:08.066Z,100385.69
2023-03-17T17:56:46.759Z,100377.72
2023-03-17T17:59:18.949Z,100391.00
2023-03-17T18:01:51.009Z,100392.78
2023-03-17T18:04:23.320Z,100389.22
2023-03-17T18:06:55.409Z,100399.84
2023-03-17T18:09:27.807Z,100388.28
2023-03-17T18:12:00.098Z,100383.88
2023-03-17T18:14:32.184Z,100387.41
2023-03-17T18:17:04.401Z,100402.44
2023-03-17T18:19:36.697Z,100400.69
2023-03-17T18:22:09.174Z,100403.31
2023-03-17T18:24:41.192Z,100398.91
2023-03-17T18:27:13.458Z,100405.97
2023-03-17T18:29:47.260Z,100385.59
2023-03-17T18:32:19.238Z,100400.63
2023-03-17T18:34:51.691Z,100394.44
2023-03-17T18:37:23.713Z,100397.06
2023-03-17T18:40:12.564Z,100405.91
2023-03-17T18:42:47.193Z,100389.09
2023-03-17T18:45:19.715Z,100388.22
2023-03-17T18:47:51.926Z,100411.22
2023-03-17T18:50:23.968Z,100413.84
2023-03-17T18:52:56.622Z,100417.41
2023-03-17T18:55:28.617Z,100394.34
2023-03-17T18:58:00.657Z,100406.75
2023-03-17T19:00:33.884Z,100418.22
2023-03-17T19:03:06.212Z,100417.34
2023-03-17T19:05:39.511Z,100416.47
2023-03-17T19:08:11.667Z,100420.00
2023-03-17T19:10:44.560Z,100404.94
2023-03-17T19:13:16.567Z,100413.78
2023-03-17T19:15:48.578Z,100413.75
2023-03-17T19:18:20.603Z,100419.06
2023-03-17T19:20:53.176Z,100425.25
2023-03-17T19:23:25.193Z,100415.53
2023-03-17T19:25:57.173Z,100414.63
2023-03-17T19:28:29.289Z,100423.47
2023-03-17T19:31:01.778Z,100419.06
2023-03-17T19:33:33.849Z,100418.19
2023-03-17T19:36:11.380Z,100409.28
2023-03-17T19:38:43.423Z,100416.38
2023-03-17T19:41:15.702Z,100412.81
2023-03-17T19:43:47.672Z,100407.47
2023-03-17T19:46:19.737Z,100416.31
2023-03-17T19:48:53.512Z,100387.06
2023-03-17T19:51:27.354Z,100420.75
2023-03-17T19:53:59.471Z,100411.91
2023-03-17T19:56:31.949Z,100409.28
2023-03-17T19:59:04.760Z,100414.56
2023-03-17T20:01:38.450Z,100414.59
2023-03-17T20:04:14.075Z,100418.13
2023-03-17T20:06:46.873Z,100419.88
2023-03-17T20:09:18.963Z,100413.66
2023-03-17T20:11:52.496Z,100421.63
2023-03-17T20:14:25.014Z,100426.03
2023-03-17T20:16:57.008Z,100420.72
2023-03-17T20:19:29.313Z,100432.19
2023-03-17T20:22:01.415Z,100434.84
2023-03-17T20:24:34.753Z,100436.63
2023-03-17T20:27:08.065Z,100399.34
2023-03-17T20:29:40.037Z,100426.03
2023-03-17T20:32:14.907Z,100440.16
2023-03-17T20:34:47.062Z,100438.38
2023-03-17T20:37:19.933Z,100432.13
2023-03-17T20:39:54.221Z,100439.19
2023-03-17T20:42:26.514Z,100443.56
2023-03-17T20:44:58.609Z,100455.06
2023-03-17T20:47:30.947Z,100463.88
2023-03-17T20:50:04.741Z,100464.75
2023-03-17T20:52:37.307Z,100448.81
2023-03-17T20:55:14.375Z,100462.94
2023-03-17T20:57:47.577Z,100454.97
2023-03-17T21:00:21.884Z,100466.44
2023-03-17T21:02:54.041Z,100468.22
2023-03-17T21:05:27.557Z,100437.06
2023-03-17T21:07:59.581Z,100466.38
2023-03-17T21:10:31.868Z,100473.44
2023-03-17T21:13:05.579Z,100474.34
2023-03-17T21:15:37.856Z,100467.25
2023-03-17T21:18:12.630Z,100459.28
2023-03-17T21:20:44.695Z,100446.88
2023-03-17T21:23:17.205Z,100455.78
2023-03-17T21:25:56.057Z,100457.50
2023-03-17T21:28:28.030Z,100453.06
2023-03-17T21:31:02.452Z,100468.06
2023-03-17T21:33:34.738Z,100481.31
2023-03-17T21:36:07.512Z,100470.72
2023-03-17T21:38:39.576Z,100488.38
2023-03-17T21:41:35.910Z,100477.69
2023-03-17T21:44:08.443Z,100490.97
2023-03-17T21:46:40.379Z,100485.63
2023-03-17T21:49:13.425Z,100494.50
2023-03-17T21:51:46.947Z,100495.41
2023-03-17T21:54:19.441Z,100483.88
2023-03-17T21:56:52.709Z,100498.00
2023-03-17T21:59:24.976Z,100498.03
2023-03-17T22:01:57.888Z,100503.34
2023-03-17T22:04:30.023Z,100498.88
2023-03-17T22:07:04.557Z,100501.50
2023-03-17T22:09:37.678Z,100490.91
2023-03-17T22:12:11.435Z,100491.69
2023-03-17T22:14:43.414Z,100494.34
2023-03-17T22:17:15.768Z,100494.34
2023-03-17T22:19:48.791Z,100492.56
2023-03-17T22:22:22.243Z,100492.50
2023-03-17T22:24:55.632Z,100497.81
2023-03-17T22:27:27.661Z,100504.03
2023-03-17T22:29:59.679Z,100498.72
2023-03-17T22:32:32.243Z,100504.03
2023-03-17T22:35:04.736Z,100493.44
2023-03-17T22:37:36.860Z,100505.78
2023-03-17T22:40:10.237Z,100513.72
2023-03-17T22:42:42.645Z,100506.69
2023-03-17T22:45:15.406Z,100506.66
2023-03-17T22:47:47.372Z,100508.41
2023-03-17T22:50:19.440Z,100515.47
2023-03-17T22:52:51.832Z,100528.69
2023-03-17T22:55:23.807Z,100520.75
2023-03-17T22:57:56.009Z,100536.59
2023-03-17T23:00:28.103Z,100542.78
2023-03-17T23:03:00.143Z,100539.25
2023-03-17T23:05:32.119Z,100541.91
2023-03-17T23:08:04.407Z,100541.03
2023-03-17T23:10:36.454Z,100541.03
2023-03-17T23:13:08.734Z,100545.44
2023-03-17T23:15:40.841Z,100535.69
2023-03-17T23:18:12.894Z,100538.31
2023-03-17T23:20:45.858Z,100550.66
2023-03-17T23:23:18.172Z,100545.28
2023-03-17T23:25:50.336Z,100550.63
2023-03-17T23:28:22.433Z,100549.72
2023-03-17T23:30:55.276Z,100558.53
2023-03-17T23:33:28.353Z,100558.53
2023-03-17T23:36:00.504Z,100560.28
2023-03-17T23:38:32.570Z,100562.97
2023-03-17T23:41:04.792Z,100564.72
2023-03-17T23:43:37.488Z,100566.41
2023-03-17T23:46:10.069Z,100562.81
2023-03-17T23:48:42.949Z,100561.84
2023-03-17T23:51:15.657Z,100548.50
2023-03-17T23:53:48.090Z,100556.53
2023-03-17T23:56:20.641Z,100541.63
2023-03-17T23:58:53.011Z,100537.22
